sensor_id;sensor_type;location;lat;lon;timestamp;P1;durP1;ratioP1;P2;durP2;ratioP2
77362;SDS011;66428;47.322;9.432;2023-05-15T00:02:09;1.73;;;1.05;;
77362;SDS011;66428;47.322;9.432;2023-05-15T00:04:38;2.50;;;1.40;;
77362;SDS011;66428;47.322;9.432;2023-05-15T00:07:05;1.85;;;1.15;;
77362;SDS011;66428;47.322;9.432;2023-05-15T00:09:31;2.00;;;1.30;;
77362;SDS011;66428;47.322;9.432;2023-05-15T00:12:00;3.22;;;1.20;;
77362;SDS011;66428;47.322;9.432;2023-05-15T00:14:32;2.75;;;1.08;;
77362;SDS011;66428;47.322;9.432;2023-05-15T00:17:01;2.08;;;1.27;;
77362;SDS011;66428;47.322;9.432;2023-05-15T00:19:30;2.28;;;1.45;;
77362;SDS011;66428;47.322;9.432;2023-05-15T00:21:59;2.53;;;1.52;;
77362;SDS011;66428;47.322;9.432;2023-05-15T00:24:25;3.45;;;1.48;;
77362;SDS011;66428;47.322;9.432;2023-05-15T00:26:57;1.77;;;1.10;;
77362;SDS011;66428;47.322;9.432;2023-05-15T00:29:26;2.15;;;1.33;;
77362;SDS011;66428;47.322;9.432;2023-05-15T00:31:53;2.08;;;1.45;;
77362;SDS011;66428;47.322;9.432;2023-05-15T00:34:20;1.90;;;1.20;;
77362;SDS011;66428;47.322;9.432;2023-05-15T00:36:48;1.65;;;1.00;;
77362;SDS011;66428;47.322;9.432;2023-05-15T00:39:17;2.05;;;1.38;;
77362;SDS011;66428;47.322;9.432;2023-05-15T00:41:43;2.45;;;1.35;;
77362;SDS011;66428;47.322;9.432;2023-05-15T00:44:11;1.60;;;1.02;;
77362;SDS011;66428;47.322;9.432;2023-05-15T00:46:38;1.80;;;1.20;;
77362;SDS011;66428;47.322;9.432;2023-05-15T00:49:05;2.15;;;1.38;;
77362;SDS011;66428;47.322;9.432;2023-05-15T00:51:36;2.60;;;1.67;;
77362;SDS011;66428;47.322;9.432;2023-05-15T00:54:02;3.65;;;1.50;;
77362;SDS011;66428;47.322;9.432;2023-05-15T00:56:29;2.47;;;1.55;;
77362;SDS011;66428;47.322;9.432;2023-05-15T00:59:02;2.17;;;1.40;;
77362;SDS011;66428;47.322;9.432;2023-05-15T01:01:33;2.42;;;1.60;;
77362;SDS011;66428;47.322;9.432;2023-05-15T01:04:01;3.67;;;1.63;;
77362;SDS011;66428;47.322;9.432;2023-05-15T01:06:31;2.30;;;1.30;;
77362;SDS011;66428;47.322;9.432;2023-05-15T01:08:59;2.65;;;1.50;;
77362;SDS011;66428;47.322;9.432;2023-05-15T01:11:32;1.90;;;1.20;;
77362;SDS011;66428;47.322;9.432;2023-05-15T01:14:04;1.88;;;1.10;;
77362;SDS011;66428;47.322;9.432;2023-05-15T01:16:33;1.90;;;1.27;;
77362;SDS011;66428;47.322;9.432;2023-05-15T01:19:01;2.05;;;1.20;;
77362;SDS011;66428;47.322;9.432;2023-05-15T01:24:10;2.10;;;1.20;;
77362;SDS011;66428;47.322;9.432;2023-05-15T01:26:59;1.85;;;1.08;;
77362;SDS011;66428;47.322;9.432;2023-05-15T01:32:01;1.90;;;1.10;;
77362;SDS011;66428;47.322;9.432;2023-05-15T01:34:33;1.80;;;1.38;;
77362;SDS011;66428;47.322;9.432;2023-05-15T01:37:06;1.83;;;1.00;;
77362;SDS011;66428;47.322;9.432;2023-05-15T01:39:35;1.80;;;1.05;;
77362;SDS011;66428;47.322;9.432;2023-05-15T01:42:07;2.15;;;1.15;;
77362;SDS011;66428;47.322;9.432;2023-05-15T01:44:37;2.20;;;1.20;;
77362;SDS011;66428;47.322;9.432;2023-05-15T01:47:07;2.28;;;1.48;;
77362;SDS011;66428;47.322;9.432;2023-05-15T01:49:34;1.52;;;1.00;;
77362;SDS011;66428;47.322;9.432;2023-05-15T01:52:04;1.95;;;1.20;;
77362;SDS011;66428;47.322;9.432;2023-05-15T01:54:34;3.08;;;1.40;;
77362;SDS011;66428;47.322;9.432;2023-05-15T01:57:01;1.92;;;1.13;;
77362;SDS011;66428;47.322;9.432;2023-05-15T01:59:30;1.95;;;1.13;;
77362;SDS011;66428;47.322;9.432;2023-05-15T02:01:57;1.95;;;1.00;;
77362;SDS011;66428;47.322;9.432;2023-05-15T02:04:23;2.20;;;1.42;;
77362;SDS011;66428;47.322;9.432;2023-05-15T02:06:51;2.13;;;1.08;;
77362;SDS011;66428;47.322;9.432;2023-05-15T02:09:21;1.83;;;1.17;;
77362;SDS011;66428;47.322;9.432;2023-05-15T02:11:48;2.30;;;1.40;;
77362;SDS011;66428;47.322;9.432;2023-05-15T02:14:15;1.65;;;1.15;;
77362;SDS011;66428;47.322;9.432;2023-05-15T02:16:45;3.38;;;1.40;;
77362;SDS011;66428;47.322;9.432;2023-05-15T02:19:21;2.70;;;1.38;;
77362;SDS011;66428;47.322;9.432;2023-05-15T02:21:48;2.95;;;1.35;;
77362;SDS011;66428;47.322;9.432;2023-05-15T02:24:17;1.92;;;1.38;;
77362;SDS011;66428;47.322;9.432;2023-05-15T02:37:00;2.38;;;1.35;;
77362;SDS011;66428;47.322;9.432;2023-05-15T02:39:33;1.83;;;1.23;;
77362;SDS011;66428;47.322;9.432;2023-05-15T02:42:00;2.15;;;1.40;;
77362;SDS011;66428;47.322;9.432;2023-05-15T02:44:29;1.60;;;1.02;;
77362;SDS011;66428;47.322;9.432;2023-05-15T02:46:56;2.10;;;1.40;;
77362;SDS011;66428;47.322;9.432;2023-05-15T02:49:27;1.98;;;1.15;;
77362;SDS011;66428;47.322;9.432;2023-05-15T02:51:57;2.45;;;1.42;;
77362;SDS011;66428;47.322;9.432;2023-05-15T02:54:23;2.33;;;1.40;;
77362;SDS011;66428;47.322;9.432;2023-05-15T02:56:52;1.90;;;1.30;;
77362;SDS011;66428;47.322;9.432;2023-05-15T02:59:21;2.78;;;1.42;;
77362;SDS011;66428;47.322;9.432;2023-05-15T03:01:54;2.40;;;1.60;;
77362;SDS011;66428;47.322;9.432;2023-05-15T03:04:23;2.50;;;1.52;;
77362;SDS011;66428;47.322;9.432;2023-05-15T03:06:53;2.05;;;1.25;;
77362;SDS011;66428;47.322;9.432;2023-05-15T03:09:19;3.03;;;1.20;;
77362;SDS011;66428;47.322;9.432;2023-05-15T03:11:46;2.00;;;1.38;;
77362;SDS011;66428;47.322;9.432;2023-05-15T03:14:15;2.67;;;1.10;;
77362;SDS011;66428;47.322;9.432;2023-05-15T03:16:44;2.05;;;1.10;;
77362;SDS011;66428;47.322;9.432;2023-05-15T03:19:10;1.95;;;1.20;;
77362;SDS011;66428;47.322;9.432;2023-05-15T03:21:37;2.15;;;1.52;;
77362;SDS011;66428;47.322;9.432;2023-05-15T03:24:06;2.10;;;1.20;;
77362;SDS011;66428;47.322;9.432;2023-05-15T03:26:33;1.80;;;1.08;;
77362;SDS011;66428;47.322;9.432;2023-05-15T03:29:05;2.20;;;1.40;;
77362;SDS011;66428;47.322;9.432;2023-05-15T03:31:36;2.45;;;1.40;;
77362;SDS011;66428;47.322;9.432;2023-05-15T03:34:05;2.13;;;1.30;;
77362;SDS011;66428;47.322;9.432;2023-05-15T03:36:36;1.80;;;1.20;;
77362;SDS011;66428;47.322;9.432;2023-05-15T03:39:05;2.22;;;1.40;;
77362;SDS011;66428;47.322;9.432;2023-05-15T03:41:36;1.52;;;1.25;;
77362;SDS011;66428;47.322;9.432;2023-05-15T03:44:05;2.72;;;1.25;;
77362;SDS011;66428;47.322;9.432;2023-05-15T03:46:31;1.67;;;0.93;;
77362;SDS011;66428;47.322;9.432;2023-05-15T03:48:58;1.40;;;0.90;;
77362;SDS011;66428;47.322;9.432;2023-05-15T03:51:24;2.10;;;1.30;;
77362;SDS011;66428;47.322;9.432;2023-05-15T03:53:53;1.63;;;1.05;;
77362;SDS011;66428;47.322;9.432;2023-05-15T03:56:21;1.80;;;1.15;;
77362;SDS011;66428;47.322;9.432;2023-05-15T03:58:48;1.60;;;0.98;;
77362;SDS011;66428;47.322;9.432;2023-05-15T04:01:14;1.88;;;1.20;;
77362;SDS011;66428;47.322;9.432;2023-05-15T04:03:41;1.30;;;0.85;;
77362;SDS011;66428;47.322;9.432;2023-05-15T04:06:07;4.07;;;0.90;;
77362;SDS011;66428;47.322;9.432;2023-05-15T04:08:34;1.60;;;0.98;;
77362;SDS011;66428;47.322;9.432;2023-05-15T04:11:03;1.40;;;0.93;;
77362;SDS011;66428;47.322;9.432;2023-05-15T04:13:29;2.78;;;1.00;;
77362;SDS011;66428;47.322;9.432;2023-05-15T04:16:00;1.70;;;1.13;;
77362;SDS011;66428;47.322;9.432;2023-05-15T04:18:30;2.17;;;1.17;;
77362;SDS011;66428;47.322;9.432;2023-05-15T04:20:56;1.85;;;1.17;;
77362;SDS011;66428;47.322;9.432;2023-05-15T04:23:28;2.53;;;1.40;;
77362;SDS011;66428;47.322;9.432;2023-05-15T04:25:57;1.83;;;1.13;;
77362;SDS011;66428;47.322;9.432;2023-05-15T04:28:23;1.20;;;0.73;;
77362;SDS011;66428;47.322;9.432;2023-05-15T04:30:52;1.63;;;0.80;;
77362;SDS011;66428;47.322;9.432;2023-05-15T04:33:21;1.73;;;0.93;;
77362;SDS011;66428;47.322;9.432;2023-05-15T04:35:50;2.50;;;1.20;;
77362;SDS011;66428;47.322;9.432;2023-05-15T04:38:21;1.83;;;1.13;;
77362;SDS011;66428;47.322;9.432;2023-05-15T04:40:48;1.83;;;1.05;;
77362;SDS011;66428;47.322;9.432;2023-05-15T04:43:16;1.80;;;1.02;;
77362;SDS011;66428;47.322;9.432;2023-05-15T04:45:45;2.70;;;1.10;;
77362;SDS011;66428;47.322;9.432;2023-05-15T04:48:12;1.70;;;1.10;;
77362;SDS011;66428;47.322;9.432;2023-05-15T04:50:38;1.63;;;1.20;;
77362;SDS011;66428;47.322;9.432;2023-05-15T04:53:05;1.90;;;1.10;;
77362;SDS011;66428;47.322;9.432;2023-05-15T04:55:34;2.10;;;1.30;;
77362;SDS011;66428;47.322;9.432;2023-05-15T04:58:03;3.70;;;1.50;;
77362;SDS011;66428;47.322;9.432;2023-05-15T05:00:31;3.15;;;1.33;;
77362;SDS011;66428;47.322;9.432;2023-05-15T05:03:00;2.40;;;1.35;;
77362;SDS011;66428;47.322;9.432;2023-05-15T05:05:27;2.22;;;1.48;;
77362;SDS011;66428;47.322;9.432;2023-05-15T05:07:53;2.25;;;1.35;;
77362;SDS011;66428;47.322;9.432;2023-05-15T05:10:20;1.90;;;1.17;;
77362;SDS011;66428;47.322;9.432;2023-05-15T05:12:47;1.98;;;1.30;;
77362;SDS011;66428;47.322;9.432;2023-05-15T05:15:15;1.80;;;1.23;;
77362;SDS011;66428;47.322;9.432;2023-05-15T05:17:45;2.03;;;1.23;;
77362;SDS011;66428;47.322;9.432;2023-05-15T05:20:11;1.80;;;1.17;;
77362;SDS011;66428;47.322;9.432;2023-05-15T05:22:43;1.98;;;1.20;;
77362;SDS011;66428;47.322;9.432;2023-05-15T05:25:12;2.33;;;1.38;;
77362;SDS011;66428;47.322;9.432;2023-05-15T05:27:38;2.42;;;1.25;;
77362;SDS011;66428;47.322;9.432;2023-05-15T05:30:05;1.98;;;1.33;;
77362;SDS011;66428;47.322;9.432;2023-05-15T05:32:36;2.17;;;1.52;;
77362;SDS011;66428;47.322;9.432;2023-05-15T05:35:03;2.70;;;1.40;;
77362;SDS011;66428;47.322;9.432;2023-05-15T05:37:30;2.60;;;1.50;;
77362;SDS011;66428;47.322;9.432;2023-05-15T05:39:56;2.30;;;1.50;;
77362;SDS011;66428;47.322;9.432;2023-05-15T05:42:25;2.50;;;1.40;;
77362;SDS011;66428;47.322;9.432;2023-05-15T05:44:53;2.50;;;1.52;;
77362;SDS011;66428;47.322;9.432;2023-05-15T05:47:21;2.53;;;1.55;;
77362;SDS011;66428;47.322;9.432;2023-05-15T05:49:48;2.05;;;1.48;;
77362;SDS011;66428;47.322;9.432;2023-05-15T05:52:14;1.70;;;1.00;;
77362;SDS011;66428;47.322;9.432;2023-05-15T05:54:41;2.20;;;1.30;;
77362;SDS011;66428;47.322;9.432;2023-05-15T05:57:13;2.10;;;1.40;;
77362;SDS011;66428;47.322;9.432;2023-05-15T05:59:39;2.13;;;1.25;;
77362;SDS011;66428;47.322;9.432;2023-05-15T06:02:06;2.05;;;1.30;;
77362;SDS011;66428;47.322;9.432;2023-05-15T06:04:36;2.90;;;1.38;;
77362;SDS011;66428;47.322;9.432;2023-05-15T06:07:05;3.72;;;1.30;;
77362;SDS011;66428;47.322;9.432;2023-05-15T06:09:31;1.77;;;1.10;;
77362;SDS011;66428;47.322;9.432;2023-05-15T06:11:58;2.80;;;1.42;;
77362;SDS011;66428;47.322;9.432;2023-05-15T06:14:30;2.00;;;1.45;;
77362;SDS011;66428;47.322;9.432;2023-05-15T06:17:01;2.90;;;1.10;;
77362;SDS011;66428;47.322;9.432;2023-05-15T06:19:28;3.42;;;1.65;;
77362;SDS011;66428;47.322;9.432;2023-05-15T06:21:57;1.90;;;1.20;;
77362;SDS011;66428;47.322;9.432;2023-05-15T06:24:26;2.28;;;1.27;;
77362;SDS011;66428;47.322;9.432;2023-05-15T06:26:57;2.75;;;1.60;;
77362;SDS011;66428;47.322;9.432;2023-05-15T06:29:26;1.98;;;0.90;;
77362;SDS011;66428;47.322;9.432;2023-05-15T06:31:52;1.92;;;1.38;;
77362;SDS011;66428;47.322;9.432;2023-05-15T06:34:21;2.30;;;1.40;;
77362;SDS011;66428;47.322;9.432;2023-05-15T06:36:50;2.53;;;1.60;;
77362;SDS011;66428;47.322;9.432;2023-05-15T06:39:17;1.95;;;1.33;;
77362;SDS011;66428;47.322;9.432;2023-05-15T06:41:44;2.72;;;1.52;;
77362;SDS011;66428;47.322;9.432;2023-05-15T06:44:15;2.00;;;1.45;;
77362;SDS011;66428;47.322;9.432;2023-05-15T06:46:42;2.20;;;1.42;;
77362;SDS011;66428;47.322;9.432;2023-05-15T06:49:08;3.00;;;1.65;;
77362;SDS011;66428;47.322;9.432;2023-05-15T06:51:37;2.20;;;1.40;;
77362;SDS011;66428;47.322;9.432;2023-05-15T06:54:04;1.88;;;1.30;;
77362;SDS011;66428;47.322;9.432;2023-05-15T06:56:30;2.30;;;1.35;;
77362;SDS011;66428;47.322;9.432;2023-05-15T06:58:57;3.22;;;1.50;;
77362;SDS011;66428;47.322;9.432;2023-05-15T07:01:23;2.45;;;1.70;;
77362;SDS011;66428;47.322;9.432;2023-05-15T07:03:50;2.28;;;1.27;;
77362;SDS011;66428;47.322;9.432;2023-05-15T07:06:22;2.38;;;1.60;;
77362;SDS011;66428;47.322;9.432;2023-05-15T07:08:48;3.05;;;1.50;;
77362;SDS011;66428;47.322;9.432;2023-05-15T07:11:17;2.38;;;1.40;;
77362;SDS011;66428;47.322;9.432;2023-05-15T07:13:48;2.10;;;1.50;;
77362;SDS011;66428;47.322;9.432;2023-05-15T07:16:17;2.95;;;1.67;;
77362;SDS011;66428;47.322;9.432;2023-05-15T07:18:43;2.90;;;1.77;;
77362;SDS011;66428;47.322;9.432;2023-05-15T07:21:13;2.13;;;1.45;;
77362;SDS011;66428;47.322;9.432;2023-05-15T07:23:44;2.72;;;1.50;;
77362;SDS011;66428;47.322;9.432;2023-05-15T07:26:13;2.30;;;1.33;;
77362;SDS011;66428;47.322;9.432;2023-05-15T07:28:53;3.78;;;1.98;;
77362;SDS011;66428;47.322;9.432;2023-05-15T07:31:19;2.55;;;1.60;;
77362;SDS011;66428;47.322;9.432;2023-05-15T07:33:48;2.72;;;1.80;;
77362;SDS011;66428;47.322;9.432;2023-05-15T07:36:15;3.58;;;1.65;;
77362;SDS011;66428;47.322;9.432;2023-05-15T07:38:43;3.83;;;2.17;;
77362;SDS011;66428;47.322;9.432;2023-05-15T07:41:12;3.00;;;1.65;;
77362;SDS011;66428;47.322;9.432;2023-05-15T07:43:41;2.80;;;1.73;;
77362;SDS011;66428;47.322;9.432;2023-05-15T07:46:08;6.82;;;1.90;;
77362;SDS011;66428;47.322;9.432;2023-05-15T07:48:39;2.38;;;1.60;;
77362;SDS011;66428;47.322;9.432;2023-05-15T07:51:07;2.35;;;1.50;;
77362;SDS011;66428;47.322;9.432;2023-05-15T07:53:33;2.50;;;1.65;;
77362;SDS011;66428;47.322;9.432;2023-05-15T07:56:02;2.60;;;1.77;;
77362;SDS011;66428;47.322;9.432;2023-05-15T07:58:29;3.05;;;1.70;;
77362;SDS011;66428;47.322;9.432;2023-05-15T08:00:57;3.63;;;2.40;;
77362;SDS011;66428;47.322;9.432;2023-05-15T08:03:24;3.47;;;2.05;;
77362;SDS011;66428;47.322;9.432;2023-05-15T08:05:50;3.15;;;1.50;;
77362;SDS011;66428;47.322;9.432;2023-05-15T08:08:19;2.47;;;1.63;;
77362;SDS011;66428;47.322;9.432;2023-05-15T08:10:46;2.33;;;1.40;;
77362;SDS011;66428;47.322;9.432;2023-05-15T08:13:12;2.08;;;1.27;;
77362;SDS011;66428;47.322;9.432;2023-05-15T08:15:42;1.90;;;1.10;;
77362;SDS011;66428;47.322;9.432;2023-05-15T08:18:11;1.85;;;1.20;;
77362;SDS011;66428;47.322;9.432;2023-05-15T08:20:37;2.35;;;1.27;;
77362;SDS011;66428;47.322;9.432;2023-05-15T08:23:06;2.03;;;1.45;;
77362;SDS011;66428;47.322;9.432;2023-05-15T08:25:35;1.85;;;1.23;;
77362;SDS011;66428;47.322;9.432;2023-05-15T08:28:04;1.60;;;1.00;;
77362;SDS011;66428;47.322;9.432;2023-05-15T08:30:33;2.70;;;1.52;;
77362;SDS011;66428;47.322;9.432;2023-05-15T08:33:02;3.95;;;1.58;;
77362;SDS011;66428;47.322;9.432;2023-05-15T08:35:29;2.40;;;1.55;;
77362;SDS011;66428;47.322;9.432;2023-05-15T08:37:58;2.28;;;1.55;;
77362;SDS011;66428;47.322;9.432;2023-05-15T08:40:27;2.40;;;1.58;;
77362;SDS011;66428;47.322;9.432;2023-05-15T08:42:59;2.90;;;1.58;;
77362;SDS011;66428;47.322;9.432;2023-05-15T08:45:26;2.55;;;1.58;;
77362;SDS011;66428;47.322;9.432;2023-05-15T08:47:53;2.47;;;1.60;;
77362;SDS011;66428;47.322;9.432;2023-05-15T08:50:23;3.45;;;1.27;;
77362;SDS011;66428;47.322;9.432;2023-05-15T08:52:52;2.17;;;1.42;;
77362;SDS011;66428;47.322;9.432;2023-05-15T08:55:23;2.25;;;1.55;;
77362;SDS011;66428;47.322;9.432;2023-05-15T08:57:56;2.50;;;1.42;;
77362;SDS011;66428;47.322;9.432;2023-05-15T09:00:23;2.65;;;1.52;;
77362;SDS011;66428;47.322;9.432;2023-05-15T09:02:53;2.47;;;1.60;;
77362;SDS011;66428;47.322;9.432;2023-05-15T09:05:20;2.17;;;1.50;;
77362;SDS011;66428;47.322;9.432;2023-05-15T09:07:47;2.72;;;1.40;;
77362;SDS011;66428;47.322;9.432;2023-05-15T09:10:18;1.88;;;1.27;;
77362;SDS011;66428;47.322;9.432;2023-05-15T09:12:45;3.00;;;1.90;;
77362;SDS011;66428;47.322;9.432;2023-05-15T09:15:14;3.38;;;1.65;;
77362;SDS011;66428;47.322;9.432;2023-05-15T09:17:43;3.88;;;1.70;;
77362;SDS011;66428;47.322;9.432;2023-05-15T09:20:29;1.90;;;1.20;;
77362;SDS011;66428;47.322;9.432;2023-05-15T09:23:00;2.05;;;1.40;;
77362;SDS011;66428;47.322;9.432;2023-05-15T09:25:33;2.70;;;1.42;;
77362;SDS011;66428;47.322;9.432;2023-05-15T09:28:09;2.72;;;1.50;;
77362;SDS011;66428;47.322;9.432;2023-05-15T09:30:37;1.98;;;1.10;;
77362;SDS011;66428;47.322;9.432;2023-05-15T09:33:06;1.77;;;1.33;;
77362;SDS011;66428;47.322;9.432;2023-05-15T09:35:37;2.58;;;1.60;;
77362;SDS011;66428;47.322;9.432;2023-05-15T09:38:07;1.48;;;0.95;;
77362;SDS011;66428;47.322;9.432;2023-05-15T09:40:37;2.08;;;1.25;;
77362;SDS011;66428;47.322;9.432;2023-05-15T09:43:08;2.03;;;1.33;;
77362;SDS011;66428;47.322;9.432;2023-05-15T09:45:40;2.08;;;1.25;;
77362;SDS011;66428;47.322;9.432;2023-05-15T09:48:11;1.75;;;1.25;;
77362;SDS011;66428;47.322;9.432;2023-05-15T09:50:41;2.17;;;1.02;;
77362;SDS011;66428;47.322;9.432;2023-05-15T09:53:13;1.92;;;1.40;;
77362;SDS011;66428;47.322;9.432;2023-05-15T09:55:42;2.05;;;1.40;;
77362;SDS011;66428;47.322;9.432;2023-05-15T09:58:10;1.20;;;0.85;;
77362;SDS011;66428;47.322;9.432;2023-05-15T10:00:39;1.67;;;1.13;;
77362;SDS011;66428;47.322;9.432;2023-05-15T10:03:14;1.88;;;1.10;;
77362;SDS011;66428;47.322;9.432;2023-05-15T10:05:44;1.63;;;0.90;;
77362;SDS011;66428;47.322;9.432;2023-05-15T10:08:11;1.30;;;0.80;;
77362;SDS011;66428;47.322;9.432;2023-05-15T10:10:43;1.98;;;1.17;;
77362;SDS011;66428;47.322;9.432;2023-05-15T10:13:10;2.10;;;1.15;;
77362;SDS011;66428;47.322;9.432;2023-05-15T10:15:39;2.38;;;1.00;;
77362;SDS011;66428;47.322;9.432;2023-05-15T10:18:06;1.73;;;0.90;;
77362;SDS011;66428;47.322;9.432;2023-05-15T10:20:35;1.55;;;0.98;;
77362;SDS011;66428;47.322;9.432;2023-05-15T10:23:08;1.92;;;1.20;;
77362;SDS011;66428;47.322;9.432;2023-05-15T10:25:41;2.25;;;1.10;;
77362;SDS011;66428;47.322;9.432;2023-05-15T10:28:13;2.67;;;1.10;;
77362;SDS011;66428;47.322;9.432;2023-05-15T10:30:43;1.40;;;0.80;;
77362;SDS011;66428;47.322;9.432;2023-05-15T10:33:14;1.40;;;0.82;;
77362;SDS011;66428;47.322;9.432;2023-05-15T10:35:46;1.40;;;0.80;;
77362;SDS011;66428;47.322;9.432;2023-05-15T10:38:19;1.25;;;0.75;;
77362;SDS011;66428;47.322;9.432;2023-05-15T10:40:46;1.60;;;1.08;;
77362;SDS011;66428;47.322;9.432;2023-05-15T10:43:16;1.38;;;0.80;;
77362;SDS011;66428;47.322;9.432;2023-05-15T10:45:46;1.75;;;0.93;;
77362;SDS011;66428;47.322;9.432;2023-05-15T10:48:13;1.52;;;0.90;;
77362;SDS011;66428;47.322;9.432;2023-05-15T10:50:43;1.52;;;0.90;;
77362;SDS011;66428;47.322;9.432;2023-05-15T10:53:14;1.70;;;1.00;;
77362;SDS011;66428;47.322;9.432;2023-05-15T10:55:43;1.40;;;0.90;;
77362;SDS011;66428;47.322;9.432;2023-05-15T10:58:12;1.58;;;0.90;;
77362;SDS011;66428;47.322;9.432;2023-05-15T11:00:43;1.33;;;0.88;;
77362;SDS011;66428;47.322;9.432;2023-05-15T11:03:13;1.50;;;0.98;;
77362;SDS011;66428;47.322;9.432;2023-05-15T11:08:29;1.48;;;1.00;;
77362;SDS011;66428;47.322;9.432;2023-05-15T11:11:00;1.65;;;1.13;;
77362;SDS011;66428;47.322;9.432;2023-05-15T11:19:23;1.48;;;1.10;;
77362;SDS011;66428;47.322;9.432;2023-05-15T11:21:55;1.42;;;0.93;;
77362;SDS011;66428;47.322;9.432;2023-05-15T11:24:26;3.05;;;1.45;;
77362;SDS011;66428;47.322;9.432;2023-05-15T11:27:03;1.70;;;1.00;;
77362;SDS011;66428;47.322;9.432;2023-05-15T11:29:32;1.60;;;1.00;;
77362;SDS011;66428;47.322;9.432;2023-05-15T11:31:58;1.55;;;0.80;;
77362;SDS011;66428;47.322;9.432;2023-05-15T11:34:31;1.92;;;1.17;;
77362;SDS011;66428;47.322;9.432;2023-05-15T11:37:03;1.70;;;1.00;;
77362;SDS011;66428;47.322;9.432;2023-05-15T11:39:38;1.52;;;1.00;;
77362;SDS011;66428;47.322;9.432;2023-05-15T11:42:10;2.65;;;1.23;;
77362;SDS011;66428;47.322;9.432;2023-05-15T11:44:40;2.35;;;1.00;;
77362;SDS011;66428;47.322;9.432;2023-05-15T11:47:09;1.98;;;1.27;;
77362;SDS011;66428;47.322;9.432;2023-05-15T11:49:36;1.67;;;1.02;;
77362;SDS011;66428;47.322;9.432;2023-05-15T11:52:06;4.00;;;1.27;;
77362;SDS011;66428;47.322;9.432;2023-05-15T11:54:35;2.35;;;1.30;;
77362;SDS011;66428;47.322;9.432;2023-05-15T11:57:04;2.00;;;1.20;;
77362;SDS011;66428;47.322;9.432;2023-05-15T11:59:32;2.10;;;1.00;;
77362;SDS011;66428;47.322;9.432;2023-05-15T12:02:01;2.40;;;1.00;;
77362;SDS011;66428;47.322;9.432;2023-05-15T12:04:32;1.33;;;0.80;;
77362;SDS011;66428;47.322;9.432;2023-05-15T12:06:59;1.95;;;1.15;;
77362;SDS011;66428;47.322;9.432;2023-05-15T12:09:28;1.88;;;1.17;;
77362;SDS011;66428;47.322;9.432;2023-05-15T12:11:57;1.55;;;0.98;;
77362;SDS011;66428;47.322;9.432;2023-05-15T12:14:27;1.73;;;1.10;;
77362;SDS011;66428;47.322;9.432;2023-05-15T12:16:54;2.00;;;1.30;;
77362;SDS011;66428;47.322;9.432;2023-05-15T12:19:29;1.48;;;0.85;;
77362;SDS011;66428;47.322;9.432;2023-05-15T12:21:58;1.98;;;1.00;;
77362;SDS011;66428;47.322;9.432;2023-05-15T12:24:27;1.70;;;1.13;;
77362;SDS011;66428;47.322;9.432;2023-05-15T12:26:54;1.77;;;1.13;;
77362;SDS011;66428;47.322;9.432;2023-05-15T12:29:26;1.52;;;1.00;;
77362;SDS011;66428;47.322;9.432;2023-05-15T12:31:58;1.50;;;1.10;;
77362;SDS011;66428;47.322;9.432;2023-05-15T12:34:29;1.65;;;1.02;;
77362;SDS011;66428;47.322;9.432;2023-05-15T12:36:58;1.88;;;1.10;;
77362;SDS011;66428;47.322;9.432;2023-05-15T12:39:25;1.27;;;0.80;;
77362;SDS011;66428;47.322;9.432;2023-05-15T12:41:56;1.17;;;0.88;;
77362;SDS011;66428;47.322;9.432;2023-05-15T12:44:27;1.73;;;0.95;;
77362;SDS011;66428;47.322;9.432;2023-05-15T12:46:54;1.42;;;0.90;;
77362;SDS011;66428;47.322;9.432;2023-05-15T12:49:21;1.25;;;0.70;;
77362;SDS011;66428;47.322;9.432;2023-05-15T12:51:52;1.20;;;0.80;;
77362;SDS011;66428;47.322;9.432;2023-05-15T12:54:19;2.80;;;1.10;;
77362;SDS011;66428;47.322;9.432;2023-05-15T12:56:46;1.52;;;1.00;;
77362;SDS011;66428;47.322;9.432;2023-05-15T12:59:13;2.33;;;1.13;;
77362;SDS011;66428;47.322;9.432;2023-05-15T13:01:41;1.40;;;0.85;;
77362;SDS011;66428;47.322;9.432;2023-05-15T13:04:11;2.50;;;1.33;;
77362;SDS011;66428;47.322;9.432;2023-05-15T13:06:38;1.67;;;0.95;;
77362;SDS011;66428;47.322;9.432;2023-05-15T13:09:20;1.90;;;1.20;;
77362;SDS011;66428;47.322;9.432;2023-05-15T13:11:47;1.80;;;1.20;;
77362;SDS011;66428;47.322;9.432;2023-05-15T13:14:17;2.05;;;1.40;;
77362;SDS011;66428;47.322;9.432;2023-05-15T13:16:46;1.70;;;1.20;;
77362;SDS011;66428;47.322;9.432;2023-05-15T13:19:15;2.03;;;1.00;;
77362;SDS011;66428;47.322;9.432;2023-05-15T13:21:42;1.85;;;1.20;;
77362;SDS011;66428;47.322;9.432;2023-05-15T13:24:11;2.45;;;1.10;;
77362;SDS011;66428;47.322;9.432;2023-05-15T13:26:40;2.08;;;1.17;;
77362;SDS011;66428;47.322;9.432;2023-05-15T13:29:12;2.50;;;1.50;;
77362;SDS011;66428;47.322;9.432;2023-05-15T13:31:44;1.90;;;1.50;;
77362;SDS011;66428;47.322;9.432;2023-05-15T13:34:13;1.90;;;1.23;;
77362;SDS011;66428;47.322;9.432;2023-05-15T13:36:46;2.20;;;1.45;;
77362;SDS011;66428;47.322;9.432;2023-05-15T13:39:15;1.88;;;1.30;;
77362;SDS011;66428;47.322;9.432;2023-05-15T13:41:50;1.92;;;1.40;;
77362;SDS011;66428;47.322;9.432;2023-05-15T13:44:19;2.38;;;1.63;;
77362;SDS011;66428;47.322;9.432;2023-05-15T13:46:45;2.47;;;1.60;;
77362;SDS011;66428;47.322;9.432;2023-05-15T13:49:12;2.30;;;1.50;;
77362;SDS011;66428;47.322;9.432;2023-05-15T13:51:41;1.77;;;1.27;;
77362;SDS011;66428;47.322;9.432;2023-05-15T13:54:07;2.63;;;1.55;;
77362;SDS011;66428;47.322;9.432;2023-05-15T13:56:36;1.85;;;1.23;;
77362;SDS011;66428;47.322;9.432;2023-05-15T13:59:04;2.25;;;1.30;;
77362;SDS011;66428;47.322;9.432;2023-05-15T14:01:31;2.10;;;1.50;;
77362;SDS011;66428;47.322;9.432;2023-05-15T14:03:57;1.80;;;1.30;;
77362;SDS011;66428;47.322;9.432;2023-05-15T14:06:24;2.35;;;1.63;;
77362;SDS011;66428;47.322;9.432;2023-05-15T14:08:56;3.00;;;1.50;;
77362;SDS011;66428;47.322;9.432;2023-05-15T14:11:23;2.10;;;1.30;;
77362;SDS011;66428;47.322;9.432;2023-05-15T14:13:57;3.47;;;1.50;;
77362;SDS011;66428;47.322;9.432;2023-05-15T14:16:26;1.80;;;1.30;;
77362;SDS011;66428;47.322;9.432;2023-05-15T14:18:55;2.00;;;1.25;;
77362;SDS011;66428;47.322;9.432;2023-05-15T14:21:22;2.10;;;1.30;;
77362;SDS011;66428;47.322;9.432;2023-05-15T14:23:48;2.78;;;1.70;;
77362;SDS011;66428;47.322;9.432;2023-05-15T14:26:17;3.10;;;1.35;;
77362;SDS011;66428;47.322;9.432;2023-05-15T14:28:43;1.80;;;1.10;;
77362;SDS011;66428;47.322;9.432;2023-05-15T14:31:12;2.47;;;1.75;;
77362;SDS011;66428;47.322;9.432;2023-05-15T14:33:40;2.78;;;1.40;;
77362;SDS011;66428;47.322;9.432;2023-05-15T14:38:39;2.00;;;1.30;;
77362;SDS011;66428;47.322;9.432;2023-05-15T14:41:08;3.35;;;1.48;;
77362;SDS011;66428;47.322;9.432;2023-05-15T14:43:39;2.38;;;1.50;;
77362;SDS011;66428;47.322;9.432;2023-05-15T14:46:06;4.32;;;2.13;;
77362;SDS011;66428;47.322;9.432;2023-05-15T14:48:35;1.85;;;1.10;;
77362;SDS011;66428;47.322;9.432;2023-05-15T14:51:04;2.30;;;1.60;;
77362;SDS011;66428;47.322;9.432;2023-05-15T14:53:36;2.20;;;1.40;;
77362;SDS011;66428;47.322;9.432;2023-05-15T14:56:02;2.30;;;1.40;;
77362;SDS011;66428;47.322;9.432;2023-05-15T14:58:29;2.60;;;1.60;;
77362;SDS011;66428;47.322;9.432;2023-05-15T15:01:00;3.08;;;1.45;;
77362;SDS011;66428;47.322;9.432;2023-05-15T15:03:27;2.60;;;1.50;;
77362;SDS011;66428;47.322;9.432;2023-05-15T15:05:57;3.65;;;1.90;;
77362;SDS011;66428;47.322;9.432;2023-05-15T15:08:32;3.03;;;1.70;;
77362;SDS011;66428;47.322;9.432;2023-05-15T15:11:13;2.58;;;1.67;;
77362;SDS011;66428;47.322;9.432;2023-05-15T15:13:40;2.53;;;1.50;;
77362;SDS011;66428;47.322;9.432;2023-05-15T15:16:09;3.70;;;2.63;;
77362;SDS011;66428;47.322;9.432;2023-05-15T15:18:38;3.55;;;2.50;;
77362;SDS011;66428;47.322;9.432;2023-05-15T15:21:09;4.10;;;2.40;;
77362;SDS011;66428;47.322;9.432;2023-05-15T15:23:38;3.33;;;2.30;;
77362;SDS011;66428;47.322;9.432;2023-05-15T15:26:07;3.40;;;2.30;;